Time;durP1;ratioP1;P1;durP2;ratioP2;P2;SDS_P1;SDS_P2;PMS_P1;PMS_P2;Temp;Humidity;BMP_temperature;BMP_pressure;BME280_temperature;BME280_humidity;BME280_pressure;Samples;Min_cycle;Max_cycle;Signal;HPM_P1;HPM_P2
2021/12/17 00:00:09;;;;;;;14.10;8.18;;;;;;;4.15;87.66;99673.52;1684557;83;21462;-61
2021/12/17 00:05:32;;;;;;;10.03;7.35;;;;;;;4.12;87.60;99672.25;1680174;83;21576;-61
2021/12/17 00:07:52;;;;;;;10.20;7.40;;;;;;;4.12;87.37;99676.16;1679529;83;21566;-61
2021/12/17 00:10:18;;;;;;;7.65;6.85;;;;;;;4.08;87.32;99677.95;1686954;84;21490;-61
2021/12/17 00:12:45;;;;;;;7.97;6.78;;;;;;;4.03;87.06;99669.38;1684485;82;21436;-60
2021/12/17 00:15:12;;;;;;;8.45;6.53;;;;;;;4.02;87.14;99673.30;1680824;84;21456;-61
2021/12/17 00:17:51;;;;;;;7.25;5.72;;;;;;;3.94;87.13;99669.94;1684337;83;21522;-60
2021/12/17 00:53:15;;;;;;;6.22;5.40;;;;;;;3.73;86.70;99678.92;1681622;84;21509;-61
2021/12/17 00:55:38;;;;;;;8.55;5.55;;;;;;;3.76;86.70;99676.28;1678857;83;21493;-61
2021/12/17 00:58:05;;;;;;;5.87;5.08;;;;;;;3.77;86.83;99676.27;1680945;84;21458;-60
2021/12/17 01:00:33;;;;;;;6.42;4.95;;;;;;;3.79;86.71;99671.91;1688018;83;20974;-60
2021/12/17 01:03:00;;;;;;;8.03;5.03;;;;;;;3.76;86.83;99674.98;1692154;83;22118;-61
2021/12/17 01:05:28;;;;;;;6.67;4.87;;;;;;;3.71;87.13;99668.53;1686915;83;21544;-60
2021/12/17 01:07:57;;;;;;;5.67;4.40;;;;;;;3.66;87.27;99669.91;1694808;82;21128;-61
2021/12/17 01:10:35;;;;;;;7.12;5.20;;;;;;;3.71;87.35;99673.73;1663782;84;20994;-61
2021/12/17 01:13:21;;;;;;;5.97;4.75;;;;;;;3.72;87.36;99668.97;1687916;83;21534;-61
2021/12/17 01:16:07;;;;;;;7.30;4.53;;;;;;;3.74;87.17;99659.84;1691136;83;21809;-64
2021/12/17 01:18:50;;;;;;;3.92;3.52;;;;;;;3.78;87.05;99659.77;1690586;83;21520;-60
2021/12/17 01:21:26;;;;;;;5.00;3.90;;;;;;;3.76;86.80;99649.83;1699469;83;21454;-61
2021/12/17 01:24:06;;;;;;;4.75;3.95;;;;;;;3.79;86.54;99655.45;1688000;83;21478;-61
2021/12/17 01:40:58;;;;;;;3.42;2.60;;;;;;;3.71;85.64;99642.53;1687784;83;21490;-60
2021/12/17 01:43:05;;;;;;;3.60;3.05;;;;;;;3.70;85.73;99644.73;1689201;83;21832;-61
2021/12/17 01:45:37;;;;;;;3.30;2.75;;;;;;;3.60;85.86;99626.23;1696579;83;21052;-60
2021/12/17 01:48:07;;;;;;;3.52;2.58;;;;;;;3.61;85.89;99632.70;1685885;83;21656;-61
2021/12/17 02:01:20;;;;;;;2.52;1.82;;;;;;;3.55;86.44;99629.36;1678204;83;21578;-60
2021/12/17 02:03:48;;;;;;;3.27;2.27;;;;;;;3.52;86.48;99626.34;1678629;83;21046;-60
2021/12/17 02:06:15;;;;;;;3.05;2.15;;;;;;;3.51;86.54;99626.79;1686547;83;20934;-60
2021/12/17 02:08:45;;;;;;;3.72;2.10;;;;;;;3.50;86.75;99622.48;1682514;83;21900;-60
2021/12/17 02:22:55;;;;;;;2.25;2.05;;;;;;;3.60;86.77;99631.01;1638589;85;21808;-60
2021/12/17 02:30:40;;;;;;;4.70;2.40;;;;;;;3.53;86.58;99620.27;1682939;83;21479;-60
2021/12/17 02:32:49;;;;;;;2.72;2.22;;;;;;;3.51;86.67;99620.29;1680549;83;21510;-59
2021/12/17 02:35:29;;;;;;;3.02;2.05;;;;;;;3.56;86.70;99617.64;1682848;83;22090;-60
2021/12/17 02:37:47;;;;;;;7.22;2.37;;;;;;;3.58;86.60;99621.49;1686692;83;21454;-59
2021/12/17 02:46:09;;;;;;;3.47;2.10;;;;;;;3.57;86.73;99615.44;1681197;83;21531;-60
2021/12/17 02:48:36;;;;;;;2.90;2.20;;;;;;;3.57;86.90;99606.79;1680599;83;21616;-59
2021/12/17 02:51:03;;;;;;;2.00;1.60;;;;;;;3.61;86.71;99609.31;1685484;83;21588;-60
2021/12/17 02:53:30;;;;;;;4.45;2.05;;;;;;;3.63;86.64;99608.84;1679855;84;21498;-58
2021/12/17 02:56:02;;;;;;;1.67;1.52;;;;;;;3.63;86.81;99611.44;1687143;83;21587;-59
2021/12/17 02:58:31;;;;;;;2.20;1.80;;;;;;;3.61;87.05;99607.16;1684588;83;21474;-59
2021/12/17 03:00:58;;;;;;;2.25;1.67;;;;;;;3.57;87.05;99602.89;1691265;83;21682;-60
2021/12/17 03:03:27;;;;;;;2.58;1.90;;;;;;;3.57;87.05;99601.59;1687864;83;21537;-60
2021/12/17 03:05:54;;;;;;;2.05;1.60;;;;;;;3.53;86.86;99600.77;1688740;83;21545;-60
2021/12/17 03:08:23;;;;;;;4.83;1.55;;;;;;;3.53;86.80;99602.08;1686046;83;21530;-60
2021/12/17 03:10:50;;;;;;;2.83;1.77;;;;;;;3.53;87.14;99600.77;1664566;83;20946;-60
2021/12/17 03:13:20;;;;;;;4.55;1.50;;;;;;;3.53;87.06;99599.48;1676064;83;21457;-61
2021/12/17 03:15:58;;;;;;;2.92;1.80;;;;;;;3.53;87.14;99599.48;1682980;83;21509;-60
2021/12/17 03:23:42;;;;;;;2.30;1.42;;;;;;;3.59;86.85;99596.77;1680855;83;21750;-60
2021/12/17 03:26:20;;;;;;;2.77;1.80;;;;;;;3.58;86.64;99598.09;1686327;83;21426;-60
2021/12/17 03:28:49;;;;;;;4.87;2.08;;;;;;;3.49;86.61;99600.41;1687408;83;21418;-60
2021/12/17 03:31:17;;;;;;;4.35;2.20;;;;;;;3.44;86.94;99597.01;1693265;83;21419;-60
2021/12/17 03:33:48;;;;;;;4.53;1.70;;;;;;;3.47;86.85;99595.22;1689806;83;21017;-60
2021/12/17 03:36:17;;;;;;;5.53;1.80;;;;;;;3.48;87.04;99591.76;1687480;83;21576;-61
2021/12/17 03:38:47;;;;;;;3.58;1.75;;;;;;;3.49;87.06;99583.52;1698220;83;21811;-61
2021/12/17 03:42:00;;;;;;;3.52;1.57;;;;;;;3.57;87.01;99589.89;1782109;78;23185;-62
2021/12/17 03:44:30;;;;;;;3.77;2.37;;;;;;;3.50;86.99;99589.99;1770010;80;21418;-62
2021/12/17 03:47:03;;;;;;;2.27;1.55;;;;;;;3.44;87.20;99584.02;1748516;80;21528;-61
2021/12/17 03:49:40;;;;;;;3.12;1.52;;;;;;;3.47;87.43;99587.88;1757382;78;21482;-60
2021/12/17 03:52:07;;;;;;;2.92;1.40;;;;;;;3.47;87.36;99591.33;1764548;80;21569;-60
2021/12/17 03:54:36;;;;;;;4.22;1.67;;;;;;;3.47;87.26;99588.73;1756362;80;21492;-60
2021/12/17 03:57:07;;;;;;;3.70;1.80;;;;;;;3.46;87.37;99584.84;1762377;80;21491;-61
2021/12/17 03:59:35;;;;;;;4.95;1.72;;;;;;;3.44;87.53;99577.52;1767482;80;21757;-61
2021/12/17 04:02:03;;;;;;;3.40;1.57;;;;;;;3.46;87.47;99579.19;1757787;80;21566;-60
2021/12/17 04:04:30;;;;;;;;;;;;;;;3.42;87.43;99574.92;1767108;80;21080;-60
2021/12/17 04:06:59;;;;;;;3.17;1.45;;;;;;;3.43;87.25;99566.27;1756091;80;20413;-60
2021/12/17 04:09:31;;;;;;;4.85;1.72;;;;;;;3.41;86.90;99573.23;1706659;81;21457;-61
2021/12/17 04:12:05;;;;;;;2.52;1.70;;;;;;;3.40;87.04;99581.89;1712428;82;21752;-61
2021/12/17 04:14:40;;;;;;;3.83;1.65;;;;;;;3.42;86.83;99581.87;1706755;83;21621;-60
2021/12/17 04:17:06;;;;;;;2.65;1.70;;;;;;;3.42;86.72;99587.08;1701131;82;21102;-61
2021/12/17 04:19:34;;;;;;;4.25;1.65;;;;;;;3.44;86.63;99583.56;1712689;82;21566;-60
2021/12/17 04:22:02;;;;;;;3.35;1.80;;;;;;;3.47;86.51;99580.92;1706336;83;21573;-60
2021/12/17 04:24:29;;;;;;;2.50;1.50;;;;;;;3.44;86.46;99581.41;1709684;81;21807;-60
2021/12/17 04:26:56;;;;;;;4.77;1.37;;;;;;;3.46;86.31;99583.09;1719568;81;21488;-60
2021/12/17 04:29:25;;;;;;;3.87;2.00;;;;;;;3.50;86.33;99575.70;1719238;82;21735;-60
2021/12/17 04:31:55;;;;;;;2.67;1.40;;;;;;;3.51;86.09;99567.00;1735102;81;20950;-60
2021/12/17 04:34:21;;;;;;;2.98;1.35;;;;;;;3.55;86.04;99566.96;1736718;81;21438;-60
2021/12/17 04:36:51;;;;;;;5.47;1.60;;;;;;;3.55;85.91;99570.86;1738245;81;21793;-60
2021/12/17 04:39:21;;;;;;;6.33;1.92;;;;;;;3.58;85.55;99572.98;1692249;81;21546;-60
2021/12/17 04:42:02;;;;;;;2.10;1.32;;;;;;;3.48;85.51;99577.46;1689926;82;21594;-61
2021/12/17 04:44:29;;;;;;;;;;;;;;;3.41;85.75;99582.33;1690658;82;21501;-60
2021/12/17 04:57:41;;;;;;;3.33;2.20;;;;;;;3.38;86.31;99565.47;1740124;82;21567;-59
2021/12/17 05:00:20;;;;;;;3.33;1.90;;;;;;;3.39;86.13;99567.20;1733316;80;21529;-60
2021/12/17 05:02:52;;;;;;;6.90;1.98;;;;;;;3.43;85.66;99567.56;1721193;80;21829;-60
2021/12/17 05:05:20;;;;;;;3.70;1.98;;;;;;;3.38;86.00;99562.86;1737551;80;21975;-59
2021/12/17 05:07:57;;;;;;;4.35;1.77;;;;;;;3.39;85.94;99560.70;1738659;81;20970;-59
2021/12/17 05:18:51;;;;;;;6.87;2.25;;;;;;;3.39;85.34;99557.22;1736785;80;21530;-60
2021/12/17 05:21:14;;;;;;;4.75;2.12;;;;;;;3.37;85.48;99558.98;1737798;80;21495;-58
2021/12/17 05:23:44;;;;;;;3.35;1.82;;;;;;;3.39;85.21;99562.41;1734646;80;21100;-59
2021/12/17 05:26:14;;;;;;;3.70;2.22;;;;;;;3.42;85.10;99555.88;1736537;82;21518;-60
2021/12/17 05:28:43;;;;;;;6.58;2.87;;;;;;;3.38;85.25;99560.72;1738520;80;21479;-59
2021/12/17 05:31:10;;;;;;;5.92;3.02;;;;;;;3.38;85.35;99558.12;1734287;80;21057;-60
2021/12/17 05:33:39;;;;;;;4.37;2.15;;;;;;;3.41;85.19;99560.23;1725415;80;21455;-60
2021/12/17 05:36:06;;;;;;;5.20;2.35;;;;;;;3.44;84.86;99555.42;1737311;80;21487;-60
2021/12/17 05:38:33;;;;;;;4.10;1.92;;;;;;;3.45;84.78;99551.50;1734007;81;21454;-59
2021/12/17 05:41:00;;;;;;;4.08;1.98;;;;;;;3.44;84.89;99550.22;1741865;80;21879;-59
2021/12/17 05:43:29;;;;;;;4.28;2.20;;;;;;;3.39;84.82;99543.80;1757374;79;21589;-60
2021/12/17 05:48:26;;;;;;;7.28;2.47;;;;;;;3.35;85.07;99549.05;1759768;80;21612;-59
2021/12/17 05:50:58;;;;;;;5.15;2.87;;;;;;;3.36;84.79;99551.64;1763136;80;21179;-59
2021/12/17 05:53:28;;;;;;;6.62;2.50;;;;;;;3.31;84.91;99546.52;1752158;80;21790;-60
2021/12/17 05:55:56;;;;;;;5.90;2.60;;;;;;;3.31;84.87;99550.42;1759601;80;21574;-58
2021/12/17 05:58:25;;;;;;;6.10;2.52;;;;;;;3.32;84.72;99546.07;1759611;80;21656;-60
2021/12/17 06:00:51;;;;;;;6.05;2.25;;;;;;;3.30;84.61;99543.94;1761110;80;21566;-59
2021/12/17 06:03:29;;;;;;;3.75;2.10;;;;;;;3.31;84.65;99543.04;1744418;80;21456;-59
2021/12/17 06:05:58;;;;;;;5.10;2.30;;;;;;;3.31;84.62;99543.92;1758728;80;21789;-59
2021/12/17 06:08:26;;;;;;;5.53;2.58;;;;;;;3.32;84.61;99546.07;1760759;80;21546;-60
2021/12/17 06:10:53;;;;;;;5.15;2.70;;;;;;;3.30;84.46;99546.09;1758598;80;21514;-60
2021/12/17 06:13:20;;;;;;;12.20;2.62;;;;;;;3.20;84.46;99540.62;1754602;80;21573;-60
2021/12/17 06:15:48;;;;;;;3.80;2.17;;;;;;;3.12;84.91;99548.50;1746174;80;21430;-60
2021/12/17 06:18:17;;;;;;;5.50;2.62;;;;;;;3.18;84.90;99551.89;1752633;80;21608;-60
2021/12/17 06:20:44;;;;;;;6.20;2.55;;;;;;;3.18;85.26;99549.30;1752268;80;21562;-60
2021/12/17 06:23:11;;;;;;;4.40;2.58;;;;;;;3.20;85.07;99551.02;1758683;80;21545;-60
2021/12/17 06:25:37;;;;;;;6.58;2.87;;;;;;;3.26;85.08;99552.66;1763417;80;21383;-63
2021/12/17 06:28:04;;;;;;;7.27;2.87;;;;;;;3.30;85.00;99563.43;1770089;80;21573;-61
2021/12/17 06:30:31;;;;;;;6.33;2.60;;;;;;;3.26;84.95;99558.71;1763392;80;21822;-60
2021/12/17 06:32:58;;;;;;;7.10;2.87;;;;;;;3.23;84.96;99554.84;1766461;80;21554;-59
2021/12/17 06:35:27;;;;;;;6.83;2.60;;;;;;;3.25;85.17;99557.43;1768694;80;21447;-60
2021/12/17 06:37:58;;;;;;;6.77;3.37;;;;;;;3.32;84.89;99557.77;1754481;80;20994;-60
2021/12/17 06:40:48;;;;;;;5.67;2.40;;;;;;;3.40;84.78;99562.84;1752269;80;21743;-61
2021/12/17 06:43:17;;;;;;;7.55;2.37;;;;;;;3.42;84.44;99558.03;1735544;79;21628;-59
2021/12/17 06:45:59;;;;;;;4.62;2.22;;;;;;;3.36;84.61;99554.23;1752360;79;21585;-59
2021/12/17 06:48:26;;;;;;;3.85;2.58;;;;;;;3.32;84.44;99555.17;1748290;80;21472;-59
2021/12/17 06:57:37;;;;;;;7.30;2.87;;;;;;;3.41;84.54;99561.53;1753167;80;21810;-60
2021/12/17 06:59:41;;;;;;;5.72;3.20;;;;;;;3.44;84.63;99552.82;1714224;82;21667;-59
2021/12/17 07:10:51;;;;;;;5.45;3.00;;;;;;;3.44;84.29;99561.91;1755838;80;21807;-57
2021/12/17 07:34:50;;;;;;;5.90;2.05;;;;;;;3.50;83.60;99552.72;1754470;80;21455;-57
2021/12/17 07:39:43;;;;;;;3.85;2.10;;;;;;;3.50;83.41;99557.91;1757468;80;21432;-59
2021/12/17 07:42:20;;;;;;;;;;;;;;;3.54;83.34;99557.43;1754766;80;21573;-59
2021/12/17 07:44:52;;;;;;;6.47;2.25;;;;;;;3.53;83.33;99553.13;1735503;80;20563;-59
2021/12/17 07:47:21;;;;;;;3.58;2.25;;;;;;;3.47;83.63;99558.83;1763103;80;21506;-59
2021/12/17 07:50:07;;;;;;;2.30;1.77;;;;;;;3.47;83.79;99560.58;1763354;80;21566;-59
2021/12/17 07:52:35;;;;;;;4.33;2.02;;;;;;;3.48;84.19;99557.08;1726954;80;21664;-60
2021/12/17 07:55:04;;;;;;;3.52;1.92;;;;;;;3.54;84.35;99555.68;1749786;80;21511;-58
2021/12/17 07:57:31;;;;;;;2.22;1.90;;;;;;;3.57;84.24;99555.64;1764248;80;21446;-59
2021/12/17 07:59:58;;;;;;;3.33;2.10;;;;;;;3.51;83.99;99551.40;1764058;80;21460;-59
2021/12/17 08:02:25;;;;;;;3.12;1.90;;;;;;;3.45;84.26;99557.15;1767801;80;21768;-60
2021/12/17 08:04:54;;;;;;;2.67;1.92;;;;;;;3.38;84.30;99558.97;1756799;80;21014;-59
2021/12/17 08:07:22;;;;;;;3.75;2.02;;;;;;;3.30;84.23;99560.83;1761760;80;21471;-59
2021/12/17 08:09:50;;;;;;;5.50;2.55;;;;;;;3.30;84.52;99557.78;1767343;80;21525;-59
2021/12/17 08:12:17;;;;;;;3.25;2.10;;;;;;;3.32;84.61;99557.77;1763630;80;21526;-60
2021/12/17 08:14:58;;;;;;;3.65;2.25;;;;;;;3.31;84.48;99559.52;1756335;80;22164;-58
2021/12/17 08:23:35;;;;;;;5.53;2.50;;;;;;;3.22;85.56;99556.16;1750679;80;20977;-58
2021/12/17 08:25:52;;;;;;;5.22;2.98;;;;;;;3.23;85.41;99554.84;1753760;80;20993;-60
2021/12/17 08:28:13;;;;;;;6.50;2.98;;;;;;;3.27;85.37;99558.27;1759338;80;22133;-60
2021/12/17 08:30:40;;;;;;;4.25;2.60;;;;;;;3.27;85.47;99555.66;1748715;80;21550;-58
2021/12/17 08:33:12;;;;;;;5.03;3.25;;;;;;;3.26;85.47;99555.27;1758042;80;21547;-58
2021/12/17 08:35:39;;;;;;;6.78;2.98;;;;;;;3.30;85.54;99551.28;1759978;80;21624;-59
2021/12/17 08:38:09;;;;;;;8.60;4.40;;;;;;;3.35;85.56;99556.41;1759395;80;21407;-58
2021/12/17 08:40:38;;;;;;;8.68;4.15;;;;;;;3.39;85.30;99555.92;1763838;80;21781;-59
2021/12/17 08:43:05;;;;;;;9.33;4.28;;;;;;;3.37;85.38;99552.07;1751423;80;20991;-58
2021/12/17 08:45:35;;;;;;;8.75;4.40;;;;;;;3.39;85.20;99550.72;1748095;80;20966;-58
2021/12/17 08:48:17;;;;;;;8.63;4.25;;;;;;;3.36;85.30;99545.14;1704262;80;21613;-59
2021/12/17 08:50:46;;;;;;;5.97;3.42;;;;;;;3.36;85.46;99540.39;1751844;80;21526;-59
2021/12/17 08:53:13;;;;;;;6.17;2.97;;;;;;;3.39;84.94;99543.80;1737290;80;21846;-59
2021/12/17 08:55:41;;;;;;;6.40;3.45;;;;;;;3.43;84.96;99538.97;1745021;80;21957;-59
2021/12/17 08:58:13;;;;;;;7.47;4.47;;;;;;;3.47;84.74;99534.59;1746176;80;21442;-59
2021/12/17 09:00:36;;;;;;;6.83;3.77;;;;;;;3.49;84.95;99531.52;1740509;80;20947;-59
2021/12/17 09:03:04;;;;;;;6.85;3.77;;;;;;;3.45;84.69;99528.55;1748859;80;21479;-59
2021/12/17 09:05:38;;;;;;;8.28;3.70;;;;;;;3.44;84.72;99532.88;1747719;80;21799;-60
2021/12/17 09:08:08;;;;;;;7.75;4.17;;;;;;;3.47;84.87;99533.28;1752007;80;21451;-59
2021/12/17 09:10:39;;;;;;;5.53;3.33;;;;;;;3.53;84.76;99528.43;1749725;80;21438;-59
2021/12/17 09:13:07;;;;;;;5.47;3.87;;;;;;;3.56;84.19;99530.97;1741175;80;21473;-59
2021/12/17 09:15:34;;;;;;;8.55;4.28;;;;;;;3.56;84.33;99525.77;1747589;80;21566;-60
2021/12/17 09:18:07;;;;;;;6.50;3.37;;;;;;;3.62;84.07;99523.94;1743587;80;21388;-60
2021/12/17 09:20:37;;;;;;;6.90;3.58;;;;;;;3.60;84.10;99520.92;1744608;80;21598;-60
2021/12/17 09:23:04;;;;;;;7.22;3.58;;;;;;;3.62;84.18;99518.73;1743245;80;21512;-59
2021/12/17 09:25:33;;;;;;;7.05;3.70;;;;;;;3.60;83.97;99517.02;1741728;80;21485;-59
2021/12/17 09:28:02;;;;;;;6.30;4.08;;;;;;;3.69;83.83;99516.88;1753307;80;21620;-59
2021/12/17 09:30:34;;;;;;;8.00;3.58;;;;;;;3.79;83.60;99516.30;1740376;80;21565;-60
2021/12/17 09:33:01;;;;;;;6.97;3.62;;;;;;;3.78;83.82;99505.02;1755499;80;21587;-58
2021/12/17 09:35:28;;;;;;;5.97;3.95;;;;;;;3.78;83.45;99506.77;1750360;80;21589;-60
2021/12/17 09:37:57;;;;;;;6.17;3.60;;;;;;;3.74;83.52;99507.27;1751383;80;21631;-61
2021/12/17 09:40:24;;;;;;;4.60;3.05;;;;;;;3.79;83.47;99505.45;1748010;80;21485;-59
2021/12/17 09:42:51;;;;;;;7.72;3.90;;;;;;;3.82;83.45;99501.47;1732193;81;21742;-60
2021/12/17 09:45:19;;;;;;;;;;;;;;;3.86;83.54;99502.28;1737309;81;21644;-65
2021/12/17 09:47:47;;;;;;;;;;;;;;;3.86;82.83;99500.98;1742522;80;20490;-60
2021/12/17 09:50:17;;;;;;;3.27;2.55;;;;;;;3.79;83.08;99501.55;1735088;81;20427;-60
2021/12/17 09:52:44;;;;;;;5.78;2.75;;;;;;;3.72;83.40;99494.73;1732451;80;21556;-59
2021/12/17 09:55:11;;;;;;;5.97;3.17;;;;;;;3.77;83.56;99492.03;1731484;80;21764;-59
2021/12/17 09:57:38;;;;;;;4.87;3.03;;;;;;;3.83;83.06;99494.10;1742602;80;21569;-60
2021/12/17 10:00:10;;;;;;;6.58;3.00;;;;;;;3.88;82.56;99495.30;1745218;81;20985;-60
2021/12/17 10:02:46;;;;;;;5.75;3.20;;;;;;;3.90;82.44;99490.96;1730516;81;21543;-60
2021/12/17 10:05:18;;;;;;;7.83;4.25;;;;;;;3.85;82.30;99497.53;1714259;81;21058;-60
2021/12/17 10:07:48;;;;;;;5.92;3.72;;;;;;;3.80;82.88;99495.90;1729609;81;21615;-60
2021/12/17 10:10:16;;;;;;;6.72;4.10;;;;;;;3.78;83.35;99485.52;1739950;81;21607;-59
2021/12/17 10:12:44;;;;;;;6.92;3.30;;;;;;;3.81;83.40;99491.97;1733814;80;21575;-61
2021/12/17 10:15:15;;;;;;;6.42;2.72;;;;;;;3.82;82.40;99487.62;1735742;80;21032;-60
2021/12/17 10:17:58;;;;;;;3.92;2.20;;;;;;;3.75;82.40;99485.59;1716077;82;21515;-61
2021/12/17 10:20:24;;;;;;;5.70;2.42;;;;;;;3.66;83.11;99488.34;1724648;81;21790;-60
2021/12/17 10:23:06;;;;;;;5.92;3.10;;;;;;;3.65;82.47;99488.77;1730168;81;21547;-61
2021/12/17 10:25:35;;;;;;;6.03;2.33;;;;;;;3.62;83.55;99490.14;1733340;81;21571;-60
2021/12/17 10:28:05;;;;;;;4.03;2.33;;;;;;;3.74;83.48;99487.76;1737750;80;21599;-59
2021/12/17 10:30:37;;;;;;;6.30;3.10;;;;;;;3.82;83.20;99480.66;1729111;81;21094;-58
2021/12/17 10:33:09;;;;;;;5.65;3.45;;;;;;;3.85;83.11;99482.37;1720854;81;21795;-60
2021/12/17 10:35:39;;;;;;;9.68;4.17;;;;;;;3.90;83.08;99477.50;1725299;82;21689;-59
2021/12/17 10:38:11;;;;;;;11.38;4.78;;;;;;;3.97;82.86;99472.18;1722283;81;21428;-63
2021/12/17 10:40:54;;;;;;;6.95;3.72;;;;;;;4.05;82.75;99471.16;1724366;81;21581;-63
2021/12/17 10:43:26;;;;;;;6.53;3.42;;;;;;;4.16;82.04;99465.73;1746968;80;21601;-61
2021/12/17 10:46:20;;;;;;;5.28;3.45;;;;;;;4.27;81.87;99472.03;1746359;80;21785;-61
2021/12/17 10:54:17;;;;;;;6.35;3.10;;;;;;;4.34;80.15;99474.94;1747639;80;20994;-61
2021/12/17 10:56:54;;;;;;;8.73;3.90;;;;;;;4.33;79.65;99470.60;1751143;80;21511;-62
2021/12/17 10:59:24;;;;;;;6.78;3.37;;;;;;;4.34;79.66;99471.48;1748347;80;22164;-60
2021/12/17 11:01:54;;;;;;;5.40;2.60;;;;;;;4.33;78.75;99467.15;1748535;80;21570;-61
2021/12/17 11:04:33;;;;;;;7.37;3.50;;;;;;;4.22;78.59;99472.14;1745272;80;21155;-59
2021/12/17 11:07:05;;;;;;;4.40;2.60;;;;;;;4.16;78.46;99468.33;1747664;80;21604;-61
2021/12/17 11:09:37;;;;;;;6.10;3.08;;;;;;;4.07;77.94;99469.84;1748401;80;21546;-65
2021/12/17 11:12:20;;;;;;;3.15;2.25;;;;;;;4.05;78.29;99467.68;1748087;80;21866;-59
2021/12/17 11:14:47;;;;;;;3.15;2.02;;;;;;;4.09;78.05;99466.31;1751195;80;21592;-64
2021/12/17 11:17:16;;;;;;;7.30;3.20;;;;;;;4.11;78.21;99468.89;1754328;80;21482;-60
2021/12/17 11:19:43;;;;;;;4.55;2.70;;;;;;;4.06;77.96;99467.66;1746962;80;21498;-60
2021/12/17 11:22:10;;;;;;;5.35;2.75;;;;;;;3.94;77.95;99471.81;1752549;80;21609;-58
2021/12/17 11:24:37;;;;;;;9.43;3.07;;;;;;;3.83;78.28;99472.45;1745117;80;21534;-61
2021/12/17 11:27:05;;;;;;;6.40;2.60;;;;;;;3.83;78.28;99472.45;1745891;80;21509;-60
2021/12/17 11:29:34;;;;;;;5.53;2.30;;;;;;;3.87;78.17;99468.90;1758299;80;20998;-62
2021/12/17 11:32:03;;;;;;;6.58;2.55;;;;;;;3.83;77.82;99468.55;1747088;80;21587;-61
2021/12/17 11:34:32;;;;;;;11.33;2.98;;;;;;;3.77;76.85;99464.31;1757752;79;21440;-60
2021/12/17 11:37:00;;;;;;;5.53;2.92;;;;;;;3.74;77.29;99468.70;1748198;79;21752;-60
2021/12/17 11:39:36;;;;;;;7.22;3.45;;;;;;;3.70;77.63;99466.15;1715955;80;21010;-60
2021/12/17 11:42:34;;;;;;;5.12;2.47;;;;;;;3.71;78.15;99460.50;1756192;79;21531;-60
2021/12/17 11:47:50;;;;;;;4.22;2.22;;;;;;;3.88;77.37;99464.97;1748185;79;21467;-59
2021/12/17 11:50:18;;;;;;;3.95;2.42;;;;;;;3.87;77.34;99460.64;1676596;80;21750;-60
2021/12/17 11:52:50;;;;;;;5.30;2.60;;;;;;;3.89;77.85;99461.92;1743459;79;21526;-60
2021/12/17 11:55:28;;;;;;;4.45;2.27;;;;;;;3.88;78.18;99462.38;1686912;82;21538;-59
2021/12/17 11:58:00;;;;;;;3.45;2.12;;;;;;;3.88;78.04;99468.88;1682468;82;21592;-61
2021/12/17 12:00:34;;;;;;;4.97;2.05;;;;;;;3.91;78.09;99464.05;1750434;79;21557;-59
2021/12/17 12:03:22;;;;;;;4.08;2.50;;;;;;;4.00;77.84;99465.18;1729761;81;22212;-62
2021/12/17 12:05:53;;;;;;;4.33;2.27;;;;;;;4.09;77.38;99466.77;1731538;80;20982;-60
2021/12/17 12:08:39;;;;;;;3.58;1.90;;;;;;;4.10;77.10;99469.77;1743857;79;21494;-60
2021/12/17 12:11:13;;;;;;;4.75;2.02;;;;;;;4.06;76.29;99470.26;1684812;82;21634;-60
2021/12/17 12:13:43;;;;;;;1.92;1.60;;;;;;;4.05;76.81;99470.28;1760308;79;21412;-60
2021/12/17 12:16:14;;;;;;;3.20;1.80;;;;;;;4.05;75.97;99475.06;1746586;80;21767;-60
2021/12/17 12:18:52;;;;;;;3.20;1.80;;;;;;;4.17;76.48;99474.42;1738829;80;21614;-59
2021/12/17 12:21:25;;;;;;;4.05;2.25;;;;;;;4.23;76.31;99480.80;1751024;79;21598;-59
2021/12/17 12:23:58;;;;;;;3.80;2.22;;;;;;;4.13;76.04;99473.61;1729612;80;21500;-61
2021/12/17 12:26:45;;;;;;;4.10;2.60;;;;;;;4.00;76.78;99479.48;1687491;82;21610;-60
2021/12/17 12:29:22;;;;;;;4.45;2.67;;;;;;;3.98;77.24;99471.31;1749394;79;21783;-61
2021/12/17 12:31:59;;;;;;;3.58;2.58;;;;;;;3.99;77.31;99473.86;1744008;79;21427;-60
2021/12/17 12:34:33;;;;;;;3.65;2.37;;;;;;;3.96;77.09;99473.09;1738178;79;25687;-60
2021/12/17 12:37:11;;;;;;;3.45;2.30;;;;;;;4.06;76.82;99479.81;1741490;80;21530;-61
2021/12/17 12:39:47;;;;;;;4.72;2.72;;;;;;;3.92;76.19;99478.78;1750755;79;21417;-59
2021/12/17 12:42:38;;;;;;;4.30;2.65;;;;;;;3.86;76.48;99492.76;1739867;79;21778;-59
2021/12/17 12:45:11;;;;;;;8.43;2.00;;;;;;;3.80;77.05;99498.50;1755265;79;21530;-58
2021/12/17 12:47:42;;;;;;;4.42;1.85;;;;;;;3.63;76.16;99501.38;1752229;79;21431;-62
2021/12/17 12:50:14;;;;;;;2.30;1.90;;;;;;;3.23;76.56;99500.73;1689918;82;21531;-62
2021/12/17 12:52:54;;;;;;;2.08;1.80;;;;;;;3.03;77.53;99505.79;1753755;79;21603;-61
2021/12/17 12:55:35;;;;;;;2.47;2.08;;;;;;;2.82;78.00;99504.33;1698756;82;21762;-58
2021/12/17 12:58:16;;;;;;;3.52;1.98;;;;;;;2.61;78.51;99499.42;1759372;79;21577;-58
2021/12/17 13:00:49;;;;;;;1.65;1.55;;;;;;;2.48;79.42;99506.05;1756811;79;21509;-59
2021/12/17 13:03:19;;;;;;;2.20;2.00;;;;;;;2.47;79.69;99507.39;1756268;79;21561;-60
2021/12/17 13:05:47;;;;;;;4.80;1.90;;;;;;;2.46;79.91;99500.02;1752481;80;21412;-61
2021/12/17 13:08:18;;;;;;;2.25;1.95;;;;;;;2.51;80.42;99507.33;1747662;79;21602;-61
2021/12/17 13:10:55;;;;;;;4.17;2.02;;;;;;;2.54;80.70;99501.23;1759942;79;21037;-59
2021/12/17 13:24:14;;;;;;;10.85;5.80;;;;;;;2.73;81.11;99513.12;1752025;79;21583;-59
2021/12/17 13:26:59;;;;;;;11.85;4.60;;;;;;;2.80;81.29;99515.63;1696989;82;21450;-60
2021/12/17 13:29:34;;;;;;;4.58;2.85;;;;;;;2.81;81.61;99518.20;1687457;83;20941;-62
2021/12/17 13:32:09;;;;;;;3.10;2.77;;;;;;;2.82;81.66;99520.35;1757047;79;21549;-59
2021/12/17 13:34:46;;;;;;;3.25;2.20;;;;;;;2.75;81.55;99521.30;1755207;79;21029;-59
2021/12/17 13:37:20;;;;;;;4.45;2.65;;;;;;;2.71;81.32;99521.36;1751737;79;21507;-59
2021/12/17 13:40:03;;;;;;;3.10;2.30;;;;;;;2.78;81.34;99522.58;1751629;80;21465;-60
2021/12/17 13:42:35;;;;;;;3.72;2.58;;;;;;;2.83;81.06;99521.64;1701133;82;21544;-61
2021/12/17 13:45:07;;;;;;;3.72;2.80;;;;;;;2.78;80.96;99523.42;1756023;80;21562;-61
2021/12/17 13:47:45;;;;;;;6.33;2.77;;;;;;;2.72;81.22;99523.52;1751550;80;21815;-60
2021/12/17 13:50:46;;;;;;;4.12;3.10;;;;;;;2.69;81.46;99520.53;1754744;79;21495;-61
2021/12/17 13:53:15;;;;;;;3.75;3.17;;;;;;;2.73;81.51;99519.61;1747875;80;21492;-60
2021/12/17 13:55:46;;;;;;;8.88;3.33;;;;;;;2.84;81.40;99518.59;1746045;80;20953;-58
2021/12/17 13:58:16;;;;;;;4.15;3.15;;;;;;;2.88;81.13;99515.95;1757500;80;21458;-59
2021/12/17 14:00:46;;;;;;;5.65;3.65;;;;;;;2.91;81.03;99517.64;1751382;80;21765;-59
2021/12/17 14:03:15;;;;;;;5.80;3.22;;;;;;;2.87;80.94;99513.37;1737734;80;21488;-59
2021/12/17 14:05:56;;;;;;;4.10;3.15;;;;;;;2.84;80.90;99512.09;1752120;79;21486;-59
2021/12/17 14:08:18;;;;;;;5.03;3.35;;;;;;;2.83;81.03;99516.89;1745185;80;21545;-60
2021/12/17 14:10:46;;;;;;;4.72;3.05;;;;;;;2.91;80.80;99518.94;1756098;80;21485;-60
2021/12/17 14:13:21;;;;;;;6.50;4.08;;;;;;;2.96;80.50;99518.86;1748535;80;21762;-59
2021/12/17 14:15:49;;;;;;;9.08;4.15;;;;;;;2.96;80.13;99519.73;1751538;80;21001;-58
2021/12/17 14:18:18;;;;;;;7.30;3.90;;;;;;;2.92;79.96;99517.62;1752138;80;21548;-57
2021/12/17 14:20:50;;;;;;;9.35;4.25;;;;;;;2.91;80.09;99518.94;1754115;80;21157;-57
2021/12/17 14:23:20;;;;;;;12.28;4.28;;;;;;;2.90;80.30;99513.30;1746894;80;21500;-57
2021/12/17 14:25:58;;;;;;;7.53;3.72;;;;;;;2.92;80.28;99512.42;1748427;81;22083;-58
2021/12/17 14:28:30;;;;;;;;;;;;;;;2.93;79.59;99513.28;1682991;83;21588;-57
2021/12/17 14:31:17;;;;;;;7.87;4.22;;;;;;;2.97;79.07;99512.80;1638149;85;20488;-58
2021/12/17 14:33:58;;;;;;;6.28;4.03;;;;;;;2.93;78.87;99523.66;1710545;82;21586;-58
2021/12/17 14:36:30;;;;;;;5.12;3.80;;;;;;;2.93;78.79;99521.06;1704211;83;21561;-62
2021/12/17 14:39:06;;;;;;;7.25;3.80;;;;;;;2.91;78.25;99528.02;1710086;83;21899;-58
2021/12/17 14:41:51;;;;;;;4.55;3.25;;;;;;;2.86;78.46;99526.80;1751058;80;21466;-59
2021/12/17 14:47:06;;;;;;;5.42;3.65;;;;;;;2.92;78.44;99528.01;1753593;80;21528;-59
2021/12/17 15:00:51;;;;;;;6.87;3.62;;;;;;;2.81;77.94;99531.64;1724397;81;21993;-58
2021/12/17 15:03:29;;;;;;;4.77;2.87;;;;;;;2.83;78.16;99529.88;1711992;81;21060;-56
2021/12/17 15:05:58;;;;;;;6.33;3.85;;;;;;;2.83;78.07;99538.52;1718710;82;21829;-57
2021/12/17 15:08:26;;;;;;;6.67;3.87;;;;;;;2.80;78.02;99549.38;1721028;81;20989;-57
2021/12/17 15:10:55;;;;;;;7.45;4.05;;;;;;;2.72;78.22;99546.44;1723655;81;21513;-57